Date,TemperatureHighF,TemperatureAvgF,TemperatureLowF,DewpointHighF,DewpointAvgF,DewpointLowF,HumidityHigh,HumidityAvg,HumidityLow,PressureMaxIn,PressureMinIn,WindSpeedMaxMPH,WindSpeedAvgMPH,GustSpeedMaxMPH,PrecipitationSumIn
2013-2-1,60.3,51.7,44.1,34.5,30.3,22.2,54,44,31,30.23,30.15,0,0,0,0.00
2013-2-2,63.0,54.8,47.5,30.5,28.0,21.3,45,36,28,30.30,30.17,0,0,0,0.00
2013-2-3,63.5,56.7,52.6,36.1,31.6,24.9,50,39,29,30.16,30.01,0,0,0,0.00
2013-2-4,63.7,54.7,47.9,29.3,25.6,21.3,44,33,22,30.11,30.00,0,0,0,0.00
2013-2-5,62.1,53.8,44.8,27.6,24.2,19.5,40,32,25,30.02,29.86,0,0,0,0.00
2013-2-6,63.2,54.2,48.8,27.7,25.2,12.8,40,33,22,30.04,29.84,0,0,0,0.00
2013-2-7,60.1,51.6,42.1,25.4,20.7,12.8,39,30,22,30.07,29.76,0,0,0,0.00
2013-2-8,51.1,45.5,39.1,26.7,23.2,19.4,52,42,31,29.74,29.66,0,0,0,0.00
2013-2-9,49.0,43.3,38.0,24.9,20.8,16.9,56,41,32,29.94,29.71,0,0,0,0.00
2013-2-10,50.0,41.8,36.0,23.0,17.7,14.5,49,38,27,29.98,29.87,0,0,0,0.00
2013-2-11,46.4,40.6,34.9,21.4,11.9,5.7,49,32,21,30.16,29.99,0,0,0,0.00
2013-2-12,52.6,42.8,34.9,15.9,12.1,6.5,33,29,22,30.27,30.17,0,0,0,0.00
2013-2-13,59.4,47.0,37.8,23.2,19.3,13.1,45,34,25,30.23,30.11,0,0,0,0.00
2013-2-14,61.6,54.2,44.6,26.2,23.4,21.0,40,31,23,30.26,30.12,0,0,0,0.00
2013-2-15,62.1,53.3,46.1,23.5,19.8,14.3,36,27,21,30.34,30.26,0,0,0,0.00
2013-2-16,62.6,51.5,41.9,25.4,19.7,15.2,36,29,21,30.31,29.98,0,0,0,0.00
2013-2-17,66.2,54.8,43.4,19.3,12.3,6.0,32,20,10,29.98,29.80,0,0,0,0.00
2013-2-18,57.2,49.9,41.0,20.1,16.6,9.0,35,27,18,30.05,29.86,0,0,0,0.00
2013-2-19,60.1,49.6,41.9,25.9,20.2,14.8,44,32,18,29.84,29.50,0,0,0,0.00
2013-2-20,52.9,46.2,40.7,32.2,25.4,14.9,65,45,30,29.83,29.49,0,0,0,0.00
2013-2-21,50.4,43.9,38.3,15.3,11.0,7.2,33,26,18,30.01,29.82,0,0,0,0.00
2013-2-22,54.4,46.0,37.3,16.7,12.7,9.1,31,26,21,30.11,30.02,0,0,0,0.00
2013-2-23,43.0,43.0,43.0,13.7,13.7,13.7,30,30,30,30.08,30.08,0,0,0,0.00
2013-2-24,43.0,43.0,43.0,13.7,13.7,13.7,30,30,30,30.08,30.08,0,0,0,0.00
2013-2-26,43.0,43.0,43.0,13.7,13.7,13.7,30,30,30,30.08,30.08,0,0,0,0.00
2013-2-27,55.6,46.4,35.6,11.4,4.4,-0.6,29,19,8,30.32,30.22,0,0,0,0.00
2013-2-28,60.8,49.9,37.3,13.3,8.5,1.7,24,19,15,30.36,30.28,0,0,0,0.00